HOT - SCOPE : Cruise & Drifter Tracks
in the School of Ocean and Earth Science and Technology at the University of Hawai'i at Manoa


Xeos # 2 : IMEI 50030 (s/n 78)

*Note: The cut-off voltage for the Xeos Apollo Beacon is 1.5V .

GMT GMT Latitude Longitude Speed Head SNR HDOP Batt(u) Batt(l)
date time deg N deg W knots deg volts volts
4-30-2024 20:30:15 22o 47.675' ( 22.7946) 157o 54.438' (-157.9073) 0.2 0 43 0.8 3.54 2.70
4-30-2024 20:00:39 22o 47.647' ( 22.7941) 157o 54.426' (-157.9071) 0.4 108 43 0.8 3.51 2.70
4-30-2024 19:30:15 22o 47.825' ( 22.7971) 157o 53.791' (-157.8965) 4.7 18 41 1.0 3.54 2.70
4-30-2024 19:00:14 22o 47.830' ( 22.7972) 157o 54.140' (-157.9023) 5.2 165 43 0.8 3.54 2.64
4-30-2024 18:30:13 22o 51.139' ( 22.8523) 157o 55.679' (-157.9280) 11.1 153 40 1.6 3.54 2.58
4-30-2024 18:00:14 22o 56.124' ( 22.9354) 157o 58.109' (-157.9685) 11.1 156 35 0.8 3.54 2.64
4-30-2024 17:30:14 23o 1.087' ( 23.0181) 158o 0.682' (-158.0114) 10.9 162 45 0.8 3.54 2.61
4-30-2024 17:00:52 23o 2.546' ( 23.0424) 158o 1.485' (-158.0248) 0.8 81 40 1.0 3.51 2.64
4-30-2024 16:30:12 23o 0.308' ( 23.0051) 157o 59.078' (-157.9846) 11.5 318 43 0.8 3.51 2.58
4-30-2024 16:00:17 22o 56.210' ( 22.9368) 157o 54.784' (-157.9131) 11.5 315 45 0.8 3.51 2.22
4-30-2024 15:30:16 22o 55.374' ( 22.9229) 157o 54.058' (-157.9010) 1.2 153 42 1.4 3.54 2.19
4-30-2024 15:00:16 22o 55.382' ( 22.9230) 157o 54.088' (-157.9015) 1.0 210 45 1.0 3.54 1.98
4-30-2024 14:30:15 22o 55.408' ( 22.9235) 157o 54.140' (-157.9023) 0.2 0 38 1.0 3.51 2.16
4-30-2024 14:00:17 22o 55.439' ( 22.9240) 157o 54.217' (-157.9036) 0.2 117 45 1.2 3.51 2.52
4-30-2024 13:30:16 22o 55.466' ( 22.9244) 157o 54.311' (-157.9052) 0.2 165 40 0.8 3.48 2.22
4-30-2024 13:00:17 22o 55.491' ( 22.9248) 157o 54.424' (-157.9071) 0.4 192 44 1.0 3.51 2.25
4-30-2024 12:30:14 22o 55.489' ( 22.9248) 157o 54.573' (-157.9095) 0.6 96 43 1.2 3.51 2.22
4-30-2024 12:00:17 22o 55.480' ( 22.9247) 157o 54.740' (-157.9123) 1.0 234 43 0.8 3.54 2.52
4-30-2024 11:30:16 22o 55.438' ( 22.9240) 157o 54.917' (-157.9153) 1.2 144 42 1.0 3.54 2.52
4-30-2024 11:00:21 22o 55.336' ( 22.9223) 157o 55.100' (-157.9183) 0.2 27 44 0.8 3.54 2.46
4-30-2024 10:30:16 22o 55.195' ( 22.9199) 157o 55.265' (-157.9211) 1.0 324 43 0.8 3.54 2.40
4-30-2024 10:00:19 22o 55.022' ( 22.9170) 157o 55.436' (-157.9239) 0.6 111 43 1.0 3.54 2.31
4-30-2024 9:30:14 22o 54.818' ( 22.9136) 157o 55.619' (-157.9270) 0.4 69 38 0.8 3.54 2.37
4-30-2024 9:00:38 22o 54.589' ( 22.9098) 157o 55.797' (-157.9299) 0.0 0 41 0.8 3.51 2.31
4-30-2024 8:30:16 22o 54.344' ( 22.9057) 157o 55.969' (-157.9328) 1.0 42 44 1.0 3.51 2.46
4-30-2024 8:00:13 22o 54.100' ( 22.9017) 157o 56.126' (-157.9354) 1.4 102 43 1.2 3.51 2.28
4-30-2024 7:30:18 22o 53.881' ( 22.8980) 157o 56.264' (-157.9377) 1.4 108 47 1.2 3.51 2.13
4-30-2024 7:00:13 22o 53.630' ( 22.8938) 157o 56.378' (-157.9396) 0.6 18 43 0.8 3.51 2.07
4-30-2024 6:30:17 22o 53.390' ( 22.8898) 157o 56.476' (-157.9413) 0.6 6 43 1.0 3.51 2.19
4-30-2024 6:00:14 22o 53.182' ( 22.8864) 157o 56.567' (-157.9428) 0.8 45 43 1.0 3.51 2.22
4-30-2024 5:30:15 22o 52.970' ( 22.8828) 157o 56.635' (-157.9439) 0.4 33 38 1.0 3.54 2.43
4-30-2024 5:00:12 22o 52.798' ( 22.8800) 157o 56.699' (-157.9450) 0.6 354 39 1.0 3.54 2.55
4-30-2024 4:30:13 22o 52.656' ( 22.8776) 157o 56.759' (-157.9460) 0.6 339 42 1.0 3.51 2.55
4-30-2024 4:00:13 22o 52.540' ( 22.8757) 157o 56.802' (-157.9467) 1.4 105 42 1.0 3.54 2.52
4-30-2024 3:30:15 22o 52.442' ( 22.8740) 157o 56.836' (-157.9473) 0.4 42 39 1.0 3.51 2.55
4-30-2024 3:00:15 22o 52.337' ( 22.8723) 157o 56.877' (-157.9479) 1.6 9 38 1.4 3.54 2.28
4-30-2024 2:30:13 22o 52.270' ( 22.8712) 157o 56.929' (-157.9488) 0.6 75 43 1.4 3.54 2.55
4-30-2024 2:00:15 22o 52.223' ( 22.8704) 157o 56.995' (-157.9499) 0.6 12 43 2.8 3.54 2.61
4-30-2024 1:30:36 22o 52.149' ( 22.8692) 157o 57.120' (-157.9520) 0.6 27 43 1.2 3.51 2.52
4-30-2024 1:01:23 22o 52.054' ( 22.8676) 157o 57.251' (-157.9542) 0.8 54 40 1.0 3.51 2.31
4-30-2024 0:30:38 22o 51.957' ( 22.8660) 157o 57.378' (-157.9563) 1.7 159 41 1.0 3.51 2.28
4-30-2024 0:00:37 22o 51.865' ( 22.8644) 157o 57.510' (-157.9585) 0.8 36 44 1.4 3.51 2.49
4-29-2024 23:30:15 22o 51.717' ( 22.8620) 157o 57.648' (-157.9608) 1.0 42 49 1.2 3.51 2.55
4-29-2024 23:00:16 22o 51.573' ( 22.8595) 157o 57.802' (-157.9634) 0.6 324 43 1.4 3.51 2.46
4-29-2024 22:30:22 22o 51.399' ( 22.8566) 157o 57.958' (-157.9660) 1.6 15 40 1.2 3.51 2.16
4-29-2024 22:30:22 22o 51.399' ( 22.8566) 157o 57.958' (-157.9660) 1.6 15 40 1.2 3.51 2.16
4-29-2024 22:00:11 22o 51.194' ( 22.8532) 157o 58.126' (-157.9688) 0.4 99 38 1.0 3.54 2.49
4-29-2024 21:31:08 22o 50.980' ( 22.8497) 157o 58.282' (-157.9714) 0.6 231 38 1.2 3.48 2.22
4-29-2024 21:00:11 22o 50.731' ( 22.8455) 157o 58.427' (-157.9738) 0.8 24 39 1.6 3.51 2.13
4-29-2024 20:30:16 22o 50.489' ( 22.8415) 157o 58.552' (-157.9759) 1.6 90 43 1.0 3.51 2.28
4-29-2024 20:00:35 22o 50.224' ( 22.8371) 157o 58.700' (-157.9783) 1.6 171 48 0.8 3.51 2.28
4-29-2024 19:30:11 22o 49.957' ( 22.8326) 157o 58.870' (-157.9812) 0.6 72 42 1.6 3.54 2.22
4-29-2024 19:00:14 22o 49.657' ( 22.8276) 157o 58.978' (-157.9830) 1.2 21 45 1.2 3.54 2.25
4-29-2024 18:30:14 22o 49.373' ( 22.8229) 157o 59.074' (-157.9846) 1.7 99 39 1.0 3.54 2.16
4-29-2024 18:00:14 22o 49.078' ( 22.8180) 157o 59.166' (-157.9861) 1.2 99 37 1.0 3.51 2.10
4-29-2024 17:30:16 22o 48.818' ( 22.8136) 157o 59.236' (-157.9873) 1.7 114 44 1.0 3.54 2.19
4-29-2024 17:00:14 22o 48.544' ( 22.8091) 157o 59.269' (-157.9878) 0.6 48 39 1.0 3.54 2.22
4-29-2024 16:30:14 22o 48.310' ( 22.8052) 157o 59.278' (-157.9880) 0.6 3 43 0.8 3.54 2.19
4-29-2024 16:00:19 22o 48.097' ( 22.8016) 157o 59.269' (-157.9878) 1.0 360 45 0.8 3.54 2.01
4-29-2024 15:30:17 22o 47.909' ( 22.7985) 157o 59.245' (-157.9874) 0.4 78 42 1.4 3.54 2.25
4-29-2024 15:00:20 22o 47.732' ( 22.7955) 157o 59.230' (-157.9872) 0.2 159 41 1.0 3.54 2.40
4-29-2024 14:30:36 22o 47.640' ( 22.7940) 157o 59.198' (-157.9866) 0.4 108 42 1.0 3.51 2.49
4-29-2024 14:00:16 22o 47.632' ( 22.7939) 157o 59.192' (-157.9865) 0.2 288 47 1.4 3.54 2.58
4-29-2024 13:30:15 22o 47.632' ( 22.7939) 157o 59.189' (-157.9865) 0.2 192 46 1.2 3.54 2.55
4-29-2024 13:00:17 22o 47.641' ( 22.7940) 157o 59.194' (-157.9866) 0.4 93 45 1.4 3.54 2.58
4-29-2024 12:30:16 22o 47.648' ( 22.7941) 157o 59.189' (-157.9865) 0.4 123 42 2.2 3.54 2.58
4-29-2024 12:00:18 22o 47.637' ( 22.7939) 157o 59.194' (-157.9866) 0.4 168 46 0.8 3.51 2.61
4-29-2024 11:30:17 22o 47.834' ( 22.7972) 157o 59.324' (-157.9887) 1.2 144 43 1.0 3.51 2.55
4-29-2024 11:00:18 22o 48.307' ( 22.8051) 157o 59.678' (-157.9946) 1.0 123 43 0.8 3.54 2.55
4-29-2024 10:30:14 22o 48.756' ( 22.8126) 158o 0.091' (-158.0015) 1.6 123 44 1.2 3.54 2.58
4-29-2024 10:00:18 22o 48.878' ( 22.8146) 158o 0.278' (-158.0046) 0.4 138 47 1.0 3.54 2.52
4-29-2024 9:30:14 22o 48.891' ( 22.8148) 158o 0.274' (-158.0046) 1.9 156 46 1.4 3.54 2.55
4-29-2024 9:00:17 22o 48.906' ( 22.8151) 158o 0.275' (-158.0046) 0.0 0 45 1.4 3.54 2.55
4-29-2024 8:30:14 22o 49.341' ( 22.8224) 158o 0.469' (-158.0078) 1.2 132 44 1.4 3.54 2.55
4-29-2024 8:00:32 22o 49.744' ( 22.8291) 158o 0.712' (-158.0119) 0.6 285 46 3.8 3.51 2.58
4-29-2024 7:30:13 22o 49.747' ( 22.8291) 158o 0.715' (-158.0119) 0.6 51 43 1.0 3.54 2.58
4-29-2024 7:00:19 22o 49.752' ( 22.8292) 158o 0.723' (-158.0120) 0.6 45 46 1.4 3.54 2.52
4-29-2024 6:30:14 22o 49.754' ( 22.8292) 158o 0.722' (-158.0120) 0.4 126 39 1.6 3.54 2.55
4-29-2024 6:00:18 22o 49.759' ( 22.8293) 158o 0.728' (-158.0121) 0.4 141 39 1.2 3.54 2.55
4-29-2024 5:30:13 22o 49.761' ( 22.8294) 158o 0.730' (-158.0122) 0.2 273 43 1.2 3.54 2.46
4-29-2024 5:00:16 22o 49.397' ( 22.8233) 158o 0.735' (-158.0122) 0.8 225 42 1.2 3.54 2.49
4-29-2024 4:30:16 22o 49.182' ( 22.8197) 158o 0.717' (-158.0120) 0.6 300 47 1.2 3.51 2.37
4-29-2024 4:00:34 22o 48.996' ( 22.8166) 158o 0.700' (-158.0117) 1.2 357 45 1.0 3.51 2.40
4-29-2024 3:30:14 22o 48.803' ( 22.8134) 158o 0.677' (-158.0113) 0.2 291 45 1.4 3.54 2.58
4-29-2024 3:00:14 22o 48.656' ( 22.8109) 158o 0.660' (-158.0110) 1.4 21 42 1.6 3.54 2.55
4-29-2024 2:30:14 22o 48.515' ( 22.8086) 158o 0.656' (-158.0109) 1.4 12 46 1.4 3.51 2.55
4-29-2024 2:00:14 22o 48.410' ( 22.8068) 158o 0.659' (-158.0110) 0.2 234 43 1.6 3.54 2.55
4-29-2024 1:30:35 22o 48.299' ( 22.8050) 158o 0.685' (-158.0114) 0.8 318 44 1.2 3.51 2.52
4-29-2024 1:00:13 22o 48.206' ( 22.8034) 158o 0.721' (-158.0120) 1.2 54 46 1.4 3.54 2.49
4-29-2024 0:30:14 22o 48.133' ( 22.8022) 158o 0.782' (-158.0130) 1.4 54 42 0.8 3.54 2.49
4-29-2024 0:00:13 22o 48.052' ( 22.8009) 158o 0.845' (-158.0141) 1.0 36 41 1.0 3.54 2.55
4-28-2024 23:30:14 22o 47.958' ( 22.7993) 158o 0.922' (-158.0154) 0.2 0 45 1.0 3.54 2.58
4-28-2024 23:00:12 22o 47.846' ( 22.7974) 158o 1.015' (-158.0169) 0.4 33 45 0.8 3.54 2.40
4-28-2024 22:30:13 22o 47.704' ( 22.7951) 158o 1.106' (-158.0184) 0.8 120 44 1.8 3.51 2.37
4-28-2024 22:01:06 22o 47.549' ( 22.7925) 158o 1.201' (-158.0200) 0.4 63 43 0.8 3.51 2.67
4-28-2024 21:30:13 22o 47.361' ( 22.7893) 158o 1.304' (-158.0217) 1.7 306 40 2.0 3.54 2.55
4-28-2024 21:00:14 22o 47.149' ( 22.7858) 158o 1.399' (-158.0233) 0.6 153 43 1.6 3.51 2.61
4-28-2024 20:30:14 22o 46.946' ( 22.7824) 158o 1.501' (-158.0250) 1.6 21 43 1.4 3.54 2.61
4-28-2024 20:00:12 22o 46.748' ( 22.7791) 158o 1.614' (-158.0269) 1.0 336 46 1.0 3.54 2.61
4-28-2024 19:30:13 22o 46.538' ( 22.7756) 158o 1.709' (-158.0285) 0.0 0 43 1.0 3.54 2.58
4-28-2024 19:01:05 22o 46.330' ( 22.7722) 158o 1.793' (-158.0299) 1.4 78 45 0.8 3.51 2.55
4-28-2024 18:30:13 22o 46.095' ( 22.7682) 158o 1.864' (-158.0311) 1.4 141 48 1.0 3.54 2.55
4-28-2024 18:00:12 22o 45.838' ( 22.7640) 158o 1.931' (-158.0322) 0.4 3 44 1.0 3.54 2.49
4-28-2024 17:30:11 22o 45.583' ( 22.7597) 158o 1.999' (-158.0333) 1.0 96 43 2.6 3.54 2.25
4-28-2024 17:00:13 22o 45.338' ( 22.7556) 158o 2.049' (-158.0342) 1.6 87 44 1.0 3.54 2.40
4-28-2024 16:30:17 22o 45.097' ( 22.7516) 158o 2.079' (-158.0346) 1.6 321 44 1.2 3.54 2.34
4-28-2024 16:00:14 22o 44.873' ( 22.7479) 158o 2.092' (-158.0349) 24.9 36 44 1.2 3.54 2.34
4-28-2024 15:31:06 22o 44.660' ( 22.7443) 158o 2.122' (-158.0354) 0.6 165 44 1.6 3.51 2.31
4-28-2024 15:00:16 22o 44.443' ( 22.7407) 158o 2.138' (-158.0356) 0.6 156 44 1.4 3.54 2.28
4-28-2024 14:31:10 22o 44.261' ( 22.7377) 158o 2.144' (-158.0357) 1.0 297 42 1.4 3.51 2.34
4-28-2024 14:00:36 22o 44.238' ( 22.7373) 158o 2.137' (-158.0356) 0.6 219 46 2.0 3.51 2.52
4-28-2024 13:30:43 22o 44.236' ( 22.7373) 158o 2.138' (-158.0356) 0.8 186 47 1.6 3.51 2.46
4-28-2024 13:00:32 22o 44.236' ( 22.7373) 158o 2.140' (-158.0357) 0.2 144 45 1.8 3.51 2.49
4-28-2024 12:30:20 22o 44.237' ( 22.7373) 158o 2.143' (-158.0357) 0.0 0 43 1.4 3.54 2.49
4-28-2024 12:00:15 22o 44.232' ( 22.7372) 158o 2.143' (-158.0357) 0.4 318 46 1.2 3.54 2.49
4-28-2024 11:30:35 22o 44.234' ( 22.7372) 158o 2.144' (-158.0357) 0.4 312 43 1.2 3.51 2.46
4-28-2024 11:00:13 22o 44.234' ( 22.7372) 158o 2.144' (-158.0357) 0.6 6 43 2.2 3.54 2.49
4-28-2024 10:30:36 22o 44.233' ( 22.7372) 158o 2.146' (-158.0358) 0.2 0 43 2.0 3.51 2.52
4-28-2024 10:00:16 22o 44.234' ( 22.7372) 158o 2.143' (-158.0357) 0.4 240 44 0.8 3.54 2.49
4-28-2024 9:30:41 22o 44.182' ( 22.7364) 158o 2.279' (-158.0380) 3.7 75 44 0.8 3.51 2.52
4-28-2024 9:00:20 22o 44.002' ( 22.7334) 158o 3.179' (-158.0530) 3.3 27 44 1.6 3.54 2.49
4-28-2024 8:30:16 22o 43.907' ( 22.7318) 158o 3.173' (-158.0529) 3.1 6 42 1.8 3.54 2.52
4-28-2024 8:00:36 22o 38.889' ( 22.6482) 158o 3.233' (-158.0539) 12.1 354 43 1.6 3.51 2.52
4-28-2024 7:30:13 22o 32.813' ( 22.5469) 158o 3.494' (-158.0582) 11.5 6 43 1.4 3.54 2.55
4-28-2024 7:00:16 22o 27.199' ( 22.4533) 158o 5.159' (-158.0860) 11.3 18 43 1.6 3.54 2.49
4-28-2024 6:30:14 22o 21.596' ( 22.3599) 158o 6.717' (-158.1120) 11.5 12 44 1.2 3.54 2.55
4-28-2024 6:00:35 22o 16.056' ( 22.2676) 158o 8.296' (-158.1383) 11.1 15 46 1.2 3.51 2.52
4-28-2024 5:30:16 22o 10.532' ( 22.1755) 158o 9.944' (-158.1657) 11.5 12 45 2.6 3.54 2.55
4-28-2024 5:00:14 22o 4.964' ( 22.0827) 158o 11.393' (-158.1899) 11.3 21 44 1.4 3.54 2.58
4-28-2024 4:30:42 21o 59.587' ( 21.9931) 158o 13.008' (-158.2168) 11.3 12 48 1.4 3.51 2.58
4-28-2024 3:30:14 21o 48.729' ( 21.8121) 158o 16.003' (-158.2667) 11.5 21 46 2.8 3.51 2.55
4-28-2024 2:51:59 21o 41.840' ( 21.6973) 158o 18.047' (-158.3008) 11.7 18 44 3.6 3.54 2.55
4-28-2024 2:00:15 21o 32.659' ( 21.5443) 158o 19.972' (-158.3329) 10.9 357 45 1.2 3.54 2.61
4-28-2024 1:30:35 21o 28.048' ( 21.4675) 158o 18.712' (-158.3119) 10.5 342 45 1.0 3.51 2.64
4-28-2024 1:00:42 21o 23.044' ( 21.3841) 158o 17.173' (-158.2862) 10.5 345 45 1.0 3.51 2.64
4-28-2024 0:30:11 21o 19.865' ( 21.3311) 158o 15.931' (-158.2655) 0.4 258 48 0.8 3.54 2.61
4-28-2024 0:00:39 21o 19.934' ( 21.3322) 158o 15.988' (-158.2665) 0.6 0 48 0.8 3.51 2.76
4-27-2024 23:15:13 21o 19.944' ( 21.3324) 158o 16.001' (-158.2667) 0.2 0 45 2.4 3.54 2.67
4-27-2024 23:00:11 21o 19.937' ( 21.3323) 158o 15.999' (-158.2666) 0.0 0 42 1.6 3.54 2.67
4-27-2024 22:45:10 21o 19.933' ( 21.3322) 158o 16.001' (-158.2667) 0.4 345 42 1.4 3.54 2.64
4-27-2024 22:15:11 21o 20.162' ( 21.3360) 158o 16.154' (-158.2692) 1.2 168 46 1.2 3.51 2.34
4-27-2024 22:05:06 21o 20.317' ( 21.3386) 158o 16.262' (-158.2710) 1.0 276 47 1.4 3.51 2.49

Xeos # 12 : IMEI 56990 (s/n 88)

*Note: The cut-off voltage for the Xeos Apollo Beacon is 1.5V .

GMT GMT Latitude Longitude Speed Head SNR HDOP Batt(u) Batt(l)
date time deg N deg W knots deg volts volts
4-30-2024 20:30:15 22o 47.650' ( 22.7942) 157o 54.427' (-157.9071) 0.2 159 46 1.2 3.57 2.76
4-30-2024 20:00:13 22o 47.653' ( 22.7942) 157o 54.429' (-157.9072) 0.6 120 44 1.2 3.57 2.76
4-30-2024 19:30:13 22o 47.801' ( 22.7967) 157o 53.820' (-157.8970) 4.5 21 45 2.0 3.57 2.79
4-30-2024 19:00:14 22o 47.830' ( 22.7972) 157o 54.143' (-157.9024) 5.4 162 45 1.0 3.57 2.70
4-30-2024 18:30:13 22o 51.125' ( 22.8521) 157o 55.682' (-157.9280) 11.1 153 41 1.2 3.57 2.58
4-30-2024 18:01:27 22o 55.909' ( 22.9318) 157o 58.024' (-157.9671) 11.3 147 40 1.0 3.54 2.67
4-30-2024 17:30:14 23o 1.073' ( 23.0179) 158o 0.693' (-158.0115) 10.9 162 44 1.0 3.54 2.64
4-30-2024 17:00:44 23o 2.513' ( 23.0419) 158o 1.523' (-158.0254) 1.2 282 40 0.8 3.54 2.52
4-30-2024 16:30:13 23o 2.414' ( 23.0402) 158o 1.401' (-158.0233) 0.4 291 40 1.2 3.54 2.43
4-30-2024 16:00:16 23o 2.314' ( 23.0386) 158o 1.313' (-158.0219) 1.0 360 41 1.0 3.54 2.28
4-30-2024 15:30:44 23o 2.248' ( 23.0375) 158o 1.219' (-158.0203) 0.4 0 41 0.8 3.51 2.46
4-30-2024 15:00:17 23o 2.179' ( 23.0363) 158o 1.149' (-158.0191) 0.6 186 41 1.2 3.54 2.49
4-30-2024 14:30:13 23o 2.122' ( 23.0354) 158o 1.100' (-158.0183) 0.8 198 42 1.2 3.54 2.55
4-30-2024 14:00:16 23o 2.058' ( 23.0343) 158o 1.057' (-158.0176) 1.4 252 40 1.4 3.54 2.61
4-30-2024 13:30:15 23o 2.007' ( 23.0334) 158o 1.094' (-158.0182) 4.5 0 43 1.0 3.51 2.61
4-30-2024 13:00:17 23o 1.942' ( 23.0324) 158o 1.086' (-158.0181) 0.6 240 42 1.0 3.51 2.55
4-30-2024 12:30:15 23o 1.862' ( 23.0310) 158o 1.090' (-158.0182) 1.0 189 44 1.0 3.06 2.52
4-30-2024 12:00:15 23o 1.781' ( 23.0297) 158o 1.109' (-158.0185) 1.2 39 42 0.8 3.54 2.52
4-30-2024 11:30:21 23o 1.690' ( 23.0282) 158o 1.137' (-158.0189) 0.6 54 43 1.0 3.51 2.52
4-30-2024 11:00:17 23o 1.573' ( 23.0262) 158o 1.181' (-158.0197) 1.4 246 41 0.8 2.79 2.55
4-30-2024 10:30:16 23o 1.434' ( 23.0239) 158o 1.243' (-158.0207) 1.2 243 40 0.8 3.51 2.55
4-30-2024 10:00:58 23o 1.267' ( 23.0211) 158o 1.308' (-158.0218) 0.2 207 40 0.8 3.51 2.55
4-30-2024 9:30:16 23o 1.059' ( 23.0176) 158o 1.358' (-158.0226) 0.4 57 45 1.0 3.54 2.55
4-30-2024 9:00:14 23o 0.824' ( 23.0137) 158o 1.432' (-158.0239) 0.6 15 42 1.6 3.54 2.55
4-30-2024 8:30:17 23o 0.587' ( 23.0098) 158o 1.528' (-158.0255) 1.0 345 40 1.4 3.51 2.58
4-30-2024 8:00:16 23o 0.332' ( 23.0055) 158o 1.598' (-158.0266) 1.0 6 43 1.2 3.54 2.58
4-30-2024 7:30:18 23o 0.079' ( 23.0013) 158o 1.642' (-158.0274) 1.2 21 44 1.0 3.51 2.58
4-30-2024 7:00:14 22o 59.818' ( 22.9970) 158o 1.657' (-158.0276) 0.8 51 40 1.0 3.51 2.61
4-30-2024 6:30:17 22o 59.592' ( 22.9932) 158o 1.671' (-158.0279) 0.0 0 43 1.2 3.54 2.49
4-30-2024 6:00:13 22o 59.359' ( 22.9893) 158o 1.639' (-158.0273) 1.2 357 39 1.6 3.54 2.49
4-30-2024 5:30:18 22o 59.129' ( 22.9855) 158o 1.573' (-158.0262) 1.2 15 41 1.4 3.54 2.55
4-30-2024 5:00:14 22o 58.943' ( 22.9824) 158o 1.503' (-158.0250) 0.8 291 38 1.4 3.54 2.40
4-30-2024 4:30:12 22o 58.789' ( 22.9798) 158o 1.434' (-158.0239) 0.0 0 41 1.4 3.57 2.46
4-30-2024 4:00:14 22o 58.660' ( 22.9777) 158o 1.347' (-158.0224) 0.6 249 41 2.6 3.57 2.43
4-30-2024 3:30:15 22o 58.561' ( 22.9760) 158o 1.299' (-158.0216) 0.4 201 44 1.2 3.57 2.52
4-30-2024 3:00:16 22o 58.489' ( 22.9748) 158o 1.278' (-158.0213) 1.0 6 46 1.4 3.57 2.52
4-30-2024 2:30:14 22o 58.420' ( 22.9737) 158o 1.278' (-158.0213) 0.4 78 41 1.4 3.57 2.52
4-30-2024 2:00:12 22o 58.352' ( 22.9725) 158o 1.294' (-158.0216) 1.0 357 44 1.4 3.54 2.55
4-30-2024 1:30:11 22o 58.274' ( 22.9712) 158o 1.335' (-158.0223) 0.8 93 43 1.2 3.57 2.52
4-30-2024 1:01:06 22o 58.194' ( 22.9699) 158o 1.393' (-158.0232) 0.6 300 44 1.0 3.54 2.58
4-30-2024 0:30:21 22o 58.108' ( 22.9685) 158o 1.469' (-158.0245) 0.4 81 41 1.0 3.57 2.58
4-30-2024 0:00:15 22o 58.025' ( 22.9671) 158o 1.571' (-158.0262) 0.4 129 44 1.2 3.57 2.58
4-29-2024 23:30:14 22o 57.916' ( 22.9653) 158o 1.691' (-158.0282) 0.8 351 41 0.8 3.57 2.58
4-29-2024 23:00:14 22o 57.765' ( 22.9627) 158o 1.807' (-158.0301) 0.2 21 44 1.4 3.57 2.49
4-29-2024 22:30:13 22o 57.581' ( 22.9597) 158o 1.892' (-158.0315) 1.7 297 43 0.8 3.57 2.49
4-29-2024 22:00:15 22o 57.377' ( 22.9563) 158o 2.023' (-158.0337) 0.4 57 44 1.2 3.57 2.55
4-29-2024 21:30:56 22o 57.146' ( 22.9524) 158o 2.106' (-158.0351) 0.6 297 43 1.6 3.54 2.55
4-29-2024 21:00:17 22o 56.878' ( 22.9480) 158o 2.167' (-158.0361) 0.6 96 44 2.0 3.54 2.55
4-29-2024 20:30:13 22o 56.608' ( 22.9435) 158o 2.224' (-158.0371) 1.6 27 40 1.0 3.57 2.55
4-29-2024 20:00:11 22o 56.320' ( 22.9387) 158o 2.266' (-158.0378) 1.6 24 44 1.0 3.57 2.58
4-29-2024 19:30:13 22o 56.034' ( 22.9339) 158o 2.303' (-158.0384) 1.0 48 40 1.2 3.57 2.55
4-29-2024 19:00:54 22o 55.747' ( 22.9291) 158o 2.345' (-158.0391) 0.4 342 41 1.0 3.54 2.55
4-29-2024 18:30:13 22o 55.454' ( 22.9242) 158o 2.338' (-158.0390) 0.2 36 43 1.0 3.57 2.49
4-29-2024 18:00:11 22o 55.190' ( 22.9198) 158o 2.301' (-158.0384) 1.2 336 41 1.0 3.57 2.52
4-29-2024 17:30:12 22o 54.937' ( 22.9156) 158o 2.244' (-158.0374) 0.6 72 41 0.8 3.57 2.58
4-29-2024 17:00:35 22o 54.733' ( 22.9122) 158o 2.164' (-158.0361) 1.0 336 37 0.8 3.54 2.55
4-29-2024 16:30:15 22o 54.514' ( 22.9086) 158o 2.033' (-158.0339) 0.2 0 43 1.2 3.54 2.61
4-29-2024 16:00:13 22o 54.344' ( 22.9057) 158o 1.928' (-158.0321) 1.7 75 44 1.0 3.54 2.61
4-29-2024 15:30:17 22o 54.215' ( 22.9036) 158o 1.802' (-158.0300) 1.2 123 45 1.0 3.54 2.49
4-29-2024 15:00:13 22o 54.110' ( 22.9018) 158o 1.688' (-158.0281) 0.8 279 44 1.0 3.51 2.49
4-29-2024 14:30:16 22o 54.016' ( 22.9003) 158o 1.591' (-158.0265) 0.4 81 43 1.2 3.54 2.52
4-29-2024 14:00:15 22o 53.930' ( 22.8988) 158o 1.550' (-158.0258) 0.8 282 42 1.0 3.54 2.64
4-29-2024 13:30:20 22o 53.857' ( 22.8976) 158o 1.513' (-158.0252) 0.4 294 46 1.0 3.54 2.61
4-29-2024 13:00:16 22o 53.796' ( 22.8966) 158o 1.509' (-158.0251) 1.2 321 44 0.8 3.54 2.58
4-29-2024 12:30:18 22o 53.741' ( 22.8957) 158o 1.517' (-158.0253) 0.6 138 39 1.0 3.54 2.52
4-29-2024 12:00:15 22o 53.678' ( 22.8946) 158o 1.541' (-158.0257) 0.0 0 40 0.8 3.54 2.58
4-29-2024 11:30:19 22o 53.602' ( 22.8934) 158o 1.584' (-158.0264) 1.2 9 40 1.0 3.54 2.49
4-29-2024 11:00:18 22o 53.497' ( 22.8916) 158o 1.630' (-158.0272) 1.2 129 46 0.8 3.51 2.55
4-29-2024 10:30:13 22o 53.418' ( 22.8903) 158o 1.622' (-158.0270) 0.4 219 40 1.2 3.54 2.52
4-29-2024 10:00:37 22o 53.227' ( 22.8871) 158o 1.723' (-158.0287) 0.4 72 45 0.8 3.54 2.37
4-29-2024 9:30:18 22o 53.029' ( 22.8838) 158o 1.750' (-158.0292) 1.2 258 44 1.6 3.54 2.46
4-29-2024 9:00:18 22o 52.803' ( 22.8801) 158o 1.805' (-158.0301) 0.8 315 45 1.2 3.51 2.49
4-29-2024 8:30:15 22o 52.554' ( 22.8759) 158o 1.870' (-158.0312) 1.6 321 41 1.4 3.54 2.46
4-29-2024 8:00:31 22o 52.304' ( 22.8717) 158o 1.909' (-158.0318) 0.2 141 42 1.2 3.51 2.55
4-29-2024 7:30:13 22o 52.054' ( 22.8676) 158o 1.931' (-158.0322) 0.6 0 46 1.0 3.54 2.64
4-29-2024 7:00:18 22o 51.796' ( 22.8633) 158o 1.952' (-158.0325) 1.0 330 41 1.4 3.54 2.61
4-29-2024 6:30:14 22o 51.526' ( 22.8588) 158o 1.966' (-158.0328) 0.6 39 42 1.4 3.54 2.58
4-29-2024 6:00:16 22o 51.267' ( 22.8544) 158o 1.972' (-158.0329) 1.0 57 48 1.6 2.82 2.61
4-29-2024 5:30:14 22o 50.998' ( 22.8500) 158o 1.966' (-158.0328) 1.2 54 44 1.4 3.54 2.61
4-29-2024 5:00:15 22o 50.733' ( 22.8455) 158o 1.933' (-158.0322) 1.2 318 44 2.4 3.54 2.58
4-29-2024 4:30:13 22o 50.506' ( 22.8418) 158o 1.906' (-158.0318) 1.7 282 46 1.4 3.54 2.52
4-29-2024 4:00:14 22o 50.296' ( 22.8383) 158o 1.886' (-158.0314) 1.2 267 44 1.0 3.57 2.58
4-29-2024 3:30:14 22o 50.129' ( 22.8355) 158o 1.831' (-158.0305) 1.4 267 45 1.2 3.57 2.52
4-29-2024 3:00:14 22o 49.987' ( 22.8331) 158o 1.800' (-158.0300) 0.8 192 40 1.4 3.57 2.58
4-29-2024 2:30:14 22o 49.873' ( 22.8312) 158o 1.788' (-158.0298) 1.7 87 42 1.4 3.57 2.58
4-29-2024 2:00:13 22o 49.790' ( 22.8298) 158o 1.780' (-158.0297) 0.8 48 45 0.8 3.57 2.55
4-29-2024 1:30:14 22o 49.723' ( 22.8287) 158o 1.793' (-158.0299) 0.4 225 42 1.0 3.57 2.52
4-29-2024 1:01:07 22o 49.669' ( 22.8278) 158o 1.830' (-158.0305) 0.4 87 44 1.0 3.54 2.55
4-29-2024 0:30:13 22o 49.597' ( 22.8266) 158o 1.899' (-158.0317) 0.6 123 41 0.8 3.57 2.52
4-29-2024 0:00:38 22o 49.521' ( 22.8254) 158o 1.988' (-158.0331) 0.6 9 44 1.6 3.54 2.61
4-28-2024 23:30:12 22o 49.419' ( 22.8237) 158o 2.077' (-158.0346) 0.0 0 42 1.0 3.57 2.58
4-28-2024 23:00:12 22o 49.313' ( 22.8219) 158o 2.177' (-158.0363) 0.4 111 44 0.8 3.57 2.55
4-28-2024 22:30:14 22o 49.172' ( 22.8195) 158o 2.274' (-158.0379) 0.6 123 45 1.4 3.57 2.49
4-28-2024 22:00:12 22o 49.014' ( 22.8169) 158o 2.382' (-158.0397) 0.6 330 43 1.4 3.57 2.61
4-28-2024 21:30:13 22o 48.829' ( 22.8138) 158o 2.488' (-158.0415) 0.4 57 46 1.6 3.57 2.64
4-28-2024 21:00:37 22o 48.618' ( 22.8103) 158o 2.581' (-158.0430) 0.2 129 45 2.0 3.57 2.61
4-28-2024 20:30:10 22o 48.396' ( 22.8066) 158o 2.662' (-158.0444) 0.4 189 45 1.0 3.54 2.49
4-28-2024 20:00:11 22o 48.185' ( 22.8031) 158o 2.803' (-158.0467) 0.0 0 44 1.8 3.57 2.52
4-28-2024 19:30:13 22o 47.946' ( 22.7991) 158o 2.858' (-158.0476) 1.0 63 42 0.8 3.57 2.58
4-28-2024 19:00:12 22o 47.731' ( 22.7955) 158o 2.949' (-158.0491) 1.2 141 44 0.8 3.57 2.58
4-28-2024 18:30:12 22o 47.485' ( 22.7914) 158o 3.019' (-158.0503) 1.4 240 44 1.0 3.57 2.55
4-28-2024 18:00:10 22o 47.230' ( 22.7872) 158o 3.080' (-158.0513) 1.4 42 41 1.0 3.57 2.52
4-28-2024 17:30:11 22o 46.958' ( 22.7826) 158o 3.119' (-158.0520) 0.6 264 44 1.0 3.57 2.61
4-28-2024 17:00:15 22o 46.699' ( 22.7783) 158o 3.137' (-158.0523) 0.2 129 41 1.0 3.60 2.52
4-28-2024 16:30:36 22o 46.479' ( 22.7747) 158o 3.158' (-158.0526) 0.2 324 45 1.2 3.57 2.52
4-28-2024 16:00:16 22o 46.240' ( 22.7707) 158o 3.177' (-158.0530) 1.0 0 45 1.8 3.54 2.49
4-28-2024 15:30:16 22o 46.030' ( 22.7672) 158o 3.191' (-158.0532) 1.0 105 45 1.4 3.54 2.49
4-28-2024 15:00:38 22o 45.838' ( 22.7640) 158o 3.200' (-158.0533) 0.8 309 40 1.8 3.54 2.52
4-28-2024 14:30:13 22o 45.659' ( 22.7610) 158o 3.196' (-158.0533) 0.6 294 45 1.8 3.54 2.58
4-28-2024 14:01:05 22o 45.502' ( 22.7584) 158o 3.187' (-158.0531) 2.1 339 44 1.2 3.51 2.55
4-28-2024 13:30:18 22o 45.352' ( 22.7559) 158o 3.172' (-158.0529) 0.6 258 46 1.8 3.54 2.64
4-28-2024 13:00:13 22o 45.226' ( 22.7538) 158o 3.157' (-158.0526) 0.6 87 45 1.2 2.82 2.61
4-28-2024 12:30:17 22o 45.088' ( 22.7515) 158o 3.153' (-158.0525) 0.4 21 44 1.2 3.54 2.49
4-28-2024 12:00:16 22o 44.951' ( 22.7492) 158o 3.160' (-158.0527) 1.0 108 46 1.0 3.54 2.55
4-28-2024 11:31:06 22o 44.807' ( 22.7468) 158o 3.162' (-158.0527) 0.8 75 43 1.0 3.54 2.58
4-28-2024 11:00:17 22o 44.654' ( 22.7442) 158o 3.162' (-158.0527) 2.3 18 46 1.4 2.79 2.52
4-28-2024 10:30:35 22o 44.497' ( 22.7416) 158o 3.161' (-158.0527) 1.7 186 43 1.2 3.54 2.58
4-28-2024 10:00:15 22o 44.319' ( 22.7386) 158o 3.173' (-158.0529) 0.6 213 43 2.0 3.54 2.64
4-28-2024 9:30:42 22o 44.126' ( 22.7354) 158o 3.175' (-158.0529) 1.6 102 43 2.2 3.54 2.73
4-28-2024 9:00:23 22o 44.005' ( 22.7334) 158o 3.181' (-158.0530) 1.0 261 46 1.8 3.54 2.67
4-28-2024 8:30:35 22o 43.913' ( 22.7319) 158o 3.176' (-158.0529) 1.9 357 44 2.0 3.54 2.64
4-28-2024 8:00:23 22o 38.846' ( 22.6474) 158o 3.233' (-158.0539) 12.1 354 40 2.2 3.54 2.64
4-28-2024 7:30:15 22o 32.819' ( 22.5470) 158o 3.493' (-158.0582) 11.7 15 44 1.2 3.54 2.67
4-28-2024 7:01:07 22o 27.358' ( 22.4560) 158o 5.116' (-158.0853) 11.5 18 46 1.8 3.54 2.67
4-28-2024 6:30:17 22o 21.607' ( 22.3601) 158o 6.708' (-158.1118) 11.5 18 48 2.8 3.54 2.64
4-28-2024 6:00:35 22o 16.057' ( 22.2676) 158o 8.291' (-158.1382) 10.9 21 46 2.6 3.54 2.64
4-28-2024 5:30:42 22o 10.618' ( 22.1770) 158o 9.911' (-158.1652) 11.5 15 48 2.6 3.54 2.64
4-28-2024 5:00:15 22o 4.975' ( 22.0829) 158o 11.384' (-158.1897) 11.5 18 42 3.0 3.57 2.67
4-28-2024 4:30:39 21o 59.599' ( 21.9933) 158o 13.052' (-158.2175) 11.1 9 46 3.6 3.57 2.67
4-28-2024 4:00:12 21o 54.193' ( 21.9032) 158o 14.551' (-158.2425) 11.1 6 45 3.0 3.57 2.61
4-28-2024 3:30:20 21o 48.730' ( 21.8122) 158o 16.003' (-158.2667) 11.3 12 46 2.6 3.57 2.61
4-28-2024 3:00:15 21o 43.294' ( 21.7216) 158o 17.613' (-158.2936) 10.9 18 45 1.6 3.60 2.64
4-28-2024 2:31:05 21o 38.110' ( 21.6352) 158o 19.118' (-158.3186) 10.7 18 51 1.4 3.57 2.64
4-28-2024 2:00:12 21o 32.641' ( 21.5440) 158o 19.940' (-158.3323) 10.3 6 45 2.8 3.60 2.70
4-28-2024 1:30:46 21o 28.060' ( 21.4677) 158o 18.698' (-158.3116) 10.5 345 40 2.2 3.57 2.70
4-28-2024 1:00:10 21o 22.954' ( 21.3826) 158o 17.155' (-158.2859) 10.5 345 44 1.2 3.60 2.67
4-28-2024 0:30:13 21o 19.867' ( 21.3311) 158o 15.929' (-158.2655) 0.4 147 47 1.0 3.60 2.64
4-28-2024 0:00:36 21o 19.936' ( 21.3323) 158o 15.997' (-158.2666) 0.2 0 47 1.0 3.57 2.67
4-27-2024 23:05:10 21o 19.961' ( 21.3327) 158o 16.024' (-158.2671) 0.2 0 46 3.2 3.60 2.64
4-27-2024 23:00:11 21o 19.952' ( 21.3325) 158o 16.016' (-158.2669) 0.0 0 44 2.2 3.54 2.61
4-27-2024 22:55:38 21o 19.933' ( 21.3322) 158o 16.001' (-158.2667) 0.2 0 46 1.4 3.57 2.58
4-27-2024 22:50:22 21o 19.932' ( 21.3322) 158o 16.001' (-158.2667) 0.6 0 44 1.4 3.54 2.58
4-27-2024 22:45:11 21o 19.931' ( 21.3322) 158o 16.001' (-158.2667) 0.2 351 43 1.2 3.57 2.58
4-27-2024 22:40:11 21o 19.914' ( 21.3319) 158o 15.983' (-158.2664) 0.2 0 39 1.2 3.57 2.58
4-27-2024 22:35:11 21o 19.933' ( 21.3322) 158o 16.003' (-158.2667) 0.4 0 43 1.2 3.57 2.67
4-27-2024 22:30:11 21o 19.933' ( 21.3322) 158o 16.001' (-158.2667) 0.2 141 42 1.2 3.57 2.61
4-27-2024 22:25:10 21o 20.002' ( 21.3334) 158o 16.046' (-158.2674) 1.4 159 44 1.2 3.57 2.58
4-27-2024 22:20:10 21o 20.083' ( 21.3347) 158o 16.103' (-158.2684) 1.2 153 45 1.2 3.57 2.52
4-27-2024 22:15:11 21o 20.160' ( 21.3360) 158o 16.156' (-158.2693) 1.2 168 43 1.2 3.57 2.49
4-27-2024 22:10:11 21o 20.230' ( 21.3372) 158o 16.202' (-158.2700) 1.2 147 45 2.8 3.54 2.49
4-27-2024 22:05:07 21o 20.316' ( 21.3386) 158o 16.260' (-158.2710) 1.4 138 42 1.4 3.54 2.49

Xeos # 13 : IMEI 40860 (s/n 266)

*Note: The cut-off voltage for the Xeos Apollo Beacon is 1.5V .

GMT GMT Latitude Longitude Speed Head SNR HDOP Batt(u) Batt(l)
date time deg N deg W knots deg volts volts
4-30-2024 20:22:00 22o 47.690' ( 22.7948) 157o 54.445' (-157.9074) 0.6 258 46 1.0 12.36 12.24
4-30-2024 19:31:41 22o 47.941' ( 22.7990) 157o 53.766' (-157.8961) 5.8 9 43 1.2 12.39 12.24
4-30-2024 19:01:18 22o 47.737' ( 22.7956) 157o 54.125' (-157.9021) 5.4 177 43 2.6 12.36 12.27
4-30-2024 18:30:11 22o 51.138' ( 22.8523) 157o 55.696' (-157.9283) 11.3 153 39 3.0 12.39 12.24
4-30-2024 18:01:39 22o 55.885' ( 22.9314) 157o 58.014' (-157.9669) 11.3 159 43 2.0 12.39 12.24
4-30-2024 17:21:07 23o 2.575' ( 23.0429) 158o 1.337' (-158.0223) 5.6 108 30 2.2 12.39 12.24
4-30-2024 16:30:16 23o 0.337' ( 23.0056) 157o 59.054' (-157.9842) 11.5 315 45 1.6 12.39 12.24
4-30-2024 16:01:44 22o 56.408' ( 22.9401) 157o 54.974' (-157.9162) 10.5 318 43 1.6 12.36 12.15
4-30-2024 15:30:17 22o 55.365' ( 22.9228) 157o 54.073' (-157.9012) 0.4 195 43 3.2 12.36 12.24
4-30-2024 15:01:29 22o 55.391' ( 22.9232) 157o 54.093' (-157.9015) 1.4 141 33 4.4 12.39 12.24
4-30-2024 14:11:21 22o 55.640' ( 22.9273) 157o 54.199' (-157.9033) 0.4 87 29 5.0 12.39 12.15
4-30-2024 13:21:34 22o 55.486' ( 22.9248) 157o 54.338' (-157.9056) 0.0 0 30 3.8 12.39 12.24
4-30-2024 12:22:31 22o 55.483' ( 22.9247) 157o 54.615' (-157.9102) 1.7 33 43 1.4 12.30 12.24
4-30-2024 11:51:43 22o 55.482' ( 22.9247) 157o 54.794' (-157.9132) 1.0 126 44 3.2 12.39 12.15
4-30-2024 11:11:28 22o 55.383' ( 22.9230) 157o 55.036' (-157.9173) 3.1 129 42 1.8 12.30 12.21
4-30-2024 10:30:13 22o 55.211' ( 22.9202) 157o 55.284' (-157.9214) 0.8 99 40 1.4 12.39 12.24
4-30-2024 10:01:40 22o 55.042' ( 22.9174) 157o 55.450' (-157.9242) 1.9 33 41 1.8 12.27 12.24
4-30-2024 9:22:06 22o 54.760' ( 22.9127) 157o 55.684' (-157.9281) 0.8 30 45 2.8 12.39 12.24
4-30-2024 8:30:14 22o 54.349' ( 22.9058) 157o 55.965' (-157.9327) 0.8 42 42 1.4 12.36 12.24
4-30-2024 8:01:43 22o 54.126' ( 22.9021) 157o 56.116' (-157.9353) 1.2 42 44 1.6 12.36 12.24
4-30-2024 7:30:14 22o 53.875' ( 22.8979) 157o 56.263' (-157.9377) 1.7 15 43 1.6 12.39 12.24
4-30-2024 7:01:39 22o 53.639' ( 22.8940) 157o 56.375' (-157.9396) 0.8 30 42 2.0 12.42 12.24
4-30-2024 6:21:29 22o 53.326' ( 22.8888) 157o 56.510' (-157.9418) 0.6 270 43 1.8 12.36 12.24
4-30-2024 5:31:40 22o 52.982' ( 22.8830) 157o 56.624' (-157.9437) 1.6 318 43 2.8 12.39 12.24
4-30-2024 5:00:05 22o 52.799' ( 22.8800) 157o 56.691' (-157.9449) 0.8 54 43 1.6 12.39 12.24
4-30-2024 4:30:09 22o 52.652' ( 22.8775) 157o 56.746' (-157.9458) 0.6 324 43 1.4 12.39 12.27
4-30-2024 3:30:49 22o 52.432' ( 22.8739) 157o 56.827' (-157.9471) 0.8 66 44 1.2 12.39 12.27
4-30-2024 3:21:31 22o 52.403' ( 22.8734) 157o 56.840' (-157.9473) 0.4 81 44 2.2 12.42 12.24
4-30-2024 2:21:41 22o 52.242' ( 22.8707) 157o 56.971' (-157.9495) 0.6 165 45 4.8 12.42 12.24
4-30-2024 1:31:34 22o 52.168' ( 22.8695) 157o 57.109' (-157.9518) 0.8 126 33 2.6 12.39 12.21
4-30-2024 1:23:08 22o 52.151' ( 22.8692) 157o 57.148' (-157.9525) 0.4 294 44 1.4 12.39 12.24
4-30-2024 0:31:07 22o 51.963' ( 22.8661) 157o 57.359' (-157.9560) 0.6 117 44 3.2 12.39 12.24
4-30-2024 0:09:57 22o 51.886' ( 22.8648) 157o 57.451' (-157.9575) 1.2 132 42 2.0 12.42 12.24
4-29-2024 23:30:10 22o 51.725' ( 22.8621) 157o 57.643' (-157.9607) 0.8 156 43 2.4 12.36 12.24
4-29-2024 23:00:06 22o 51.551' ( 22.8592) 157o 57.786' (-157.9631) 1.2 117 32 4.2 12.36 12.27
4-29-2024 22:30:11 22o 51.399' ( 22.8566) 157o 57.958' (-157.9660) 0.8 42 45 1.8 12.39 12.27
4-29-2024 21:30:58 22o 50.987' ( 22.8498) 157o 58.298' (-157.9716) 0.0 0 43 1.8 12.39 12.24
4-29-2024 21:22:32 22o 50.925' ( 22.8487) 157o 58.343' (-157.9724) 0.8 54 30 1.8 12.39 12.24
4-29-2024 20:21:12 22o 50.418' ( 22.8403) 157o 58.640' (-157.9773) 0.4 312 43 1.2 12.39 12.27
4-29-2024 19:30:08 22o 49.957' ( 22.8326) 157o 58.853' (-157.9809) 2.3 60 43 2.4 12.39 12.24
4-29-2024 18:30:42 22o 49.379' ( 22.8230) 157o 59.072' (-157.9845) 0.6 3 41 2.4 12.36 12.21
4-29-2024 18:11:10 22o 49.188' ( 22.8198) 157o 59.125' (-157.9854) 0.0 0 42 2.4 12.39 12.24
4-29-2024 17:30:10 22o 48.805' ( 22.8134) 157o 59.220' (-157.9870) 1.7 36 44 1.2 12.42 12.24
4-29-2024 17:00:12 22o 48.548' ( 22.8091) 157o 59.261' (-157.9877) 0.6 243 44 1.4 12.42 12.24
4-29-2024 16:23:44 22o 48.263' ( 22.8044) 157o 59.275' (-157.9879) 2.1 345 45 1.2 12.36 12.15
4-29-2024 15:30:17 22o 47.891' ( 22.7982) 157o 59.232' (-157.9872) 1.9 330 44 4.0 12.39 12.27
4-29-2024 15:00:15 22o 47.737' ( 22.7956) 157o 59.231' (-157.9872) 0.6 303 42 1.6 12.36 12.27
4-29-2024 14:21:59 22o 47.640' ( 22.7940) 157o 59.199' (-157.9866) 0.2 354 44 1.2 12.30 12.24
4-29-2024 13:30:21 22o 47.649' ( 22.7941) 157o 59.209' (-157.9868) 0.6 48 45 2.0 12.39 12.27
4-29-2024 13:00:15 22o 47.643' ( 22.7940) 157o 59.200' (-157.9867) 0.4 0 33 4.2 12.36 12.24
4-29-2024 12:30:22 22o 47.640' ( 22.7940) 157o 59.198' (-157.9866) 0.4 306 26 3.0 12.39 12.24
4-29-2024 12:00:16 22o 47.643' ( 22.7940) 157o 59.197' (-157.9866) 0.0 0 45 1.6 12.36 12.15
4-29-2024 11:30:14 22o 47.840' ( 22.7973) 157o 59.331' (-157.9889) 1.0 159 42 1.6 12.39 12.24
4-29-2024 10:52:29 22o 48.435' ( 22.8072) 157o 59.779' (-157.9963) 3.1 96 41 1.8 12.33 12.24
4-29-2024 10:11:19 22o 48.887' ( 22.8148) 158o 0.295' (-158.0049) 0.4 333 43 1.4 12.33 12.24
4-29-2024 9:40:02 22o 48.890' ( 22.8148) 158o 0.281' (-158.0047) 0.6 0 42 1.6 12.39 12.24
4-29-2024 8:51:36 22o 49.015' ( 22.8169) 158o 0.322' (-158.0054) 1.2 210 43 1.2 12.36 12.18
4-29-2024 7:40:51 22o 49.747' ( 22.8291) 158o 0.714' (-158.0119) 0.2 0 45 2.4 12.39 12.24
4-29-2024 7:11:20 22o 49.751' ( 22.8292) 158o 0.707' (-158.0118) 0.4 114 46 3.0 12.39 12.24
4-29-2024 6:30:32 22o 49.750' ( 22.8292) 158o 0.712' (-158.0119) 0.2 0 43 1.8 12.39 12.18
4-29-2024 6:00:16 22o 49.752' ( 22.8292) 158o 0.714' (-158.0119) 0.4 75 29 1.4 12.39 12.24
4-29-2024 5:00:36 22o 49.396' ( 22.8233) 158o 0.726' (-158.0121) 1.0 174 42 1.0 12.42 12.24
4-29-2024 4:51:26 22o 49.328' ( 22.8221) 158o 0.722' (-158.0120) 0.6 315 38 1.0 12.33 12.24
4-29-2024 4:00:07 22o 48.985' ( 22.8164) 158o 0.692' (-158.0115) 1.0 207 31 1.8 12.39 12.27
4-29-2024 3:30:11 22o 48.812' ( 22.8135) 158o 0.677' (-158.0113) 3.1 282 45 1.4 12.39 12.24
4-29-2024 2:30:46 22o 48.524' ( 22.8087) 158o 0.662' (-158.0110) 1.7 66 45 1.6 12.39 12.24
4-29-2024 2:21:06 22o 48.484' ( 22.8081) 158o 0.662' (-158.0110) 1.4 27 45 1.6 12.39 12.24
4-29-2024 1:31:41 22o 48.315' ( 22.8053) 158o 0.680' (-158.0113) 2.5 327 33 2.0 12.39 12.24
4-29-2024 1:00:12 22o 48.223' ( 22.8037) 158o 0.731' (-158.0122) 1.4 300 44 2.0 12.42 12.24
4-29-2024 0:31:38 22o 48.139' ( 22.8023) 158o 0.781' (-158.0130) 1.0 360 35 1.4 12.39 12.24
4-29-2024 0:00:07 22o 48.047' ( 22.8008) 158o 0.845' (-158.0141) 1.6 153 45 2.6 12.39 12.24
4-28-2024 23:21:05 22o 47.925' ( 22.7987) 158o 0.951' (-158.0159) 0.8 309 45 1.8 12.39 12.24
4-28-2024 22:30:40 22o 47.703' ( 22.7950) 158o 1.129' (-158.0188) 0.8 294 40 3.4 12.36 12.24
4-28-2024 22:11:10 22o 47.597' ( 22.7933) 158o 1.184' (-158.0197) 0.6 111 42 3.6 12.42 12.24
4-28-2024 21:30:10 22o 47.363' ( 22.7894) 158o 1.285' (-158.0214) 0.2 150 41 1.4 12.39 12.24
4-28-2024 21:01:14 22o 47.167' ( 22.7861) 158o 1.386' (-158.0231) 1.4 291 42 1.4 12.39 12.27
4-28-2024 20:30:10 22o 46.956' ( 22.7826) 158o 1.502' (-158.0250) 0.6 303 42 1.6 12.39 12.24
4-28-2024 20:00:05 22o 46.750' ( 22.7792) 158o 1.609' (-158.0268) 1.2 39 28 1.8 12.39 12.24
4-28-2024 19:30:07 22o 46.544' ( 22.7757) 158o 1.709' (-158.0285) 0.6 216 37 2.2 12.39 12.24
4-28-2024 18:30:44 22o 46.105' ( 22.7684) 158o 1.861' (-158.0310) 0.4 54 40 1.2 12.39 12.27
4-28-2024 18:22:04 22o 46.033' ( 22.7672) 158o 1.880' (-158.0313) 0.4 294 42 1.2 12.42 12.24
4-28-2024 17:41:22 22o 45.686' ( 22.7614) 158o 1.972' (-158.0329) 2.9 60 44 2.6 12.42 12.24
4-28-2024 16:41:13 22o 45.179' ( 22.7530) 158o 2.075' (-158.0346) 0.2 312 33 2.4 12.39 12.24
4-28-2024 16:20:35 22o 45.019' ( 22.7503) 158o 2.098' (-158.0350) 1.4 75 42 2.0 12.39 12.24
4-28-2024 15:30:29 22o 44.656' ( 22.7443) 158o 2.114' (-158.0352) 1.0 324 42 5.2 12.39 12.24
4-28-2024 14:41:00 22o 44.324' ( 22.7387) 158o 2.143' (-158.0357) 0.6 69 42 2.2 12.39 12.24
4-28-2024 14:00:14 22o 44.243' ( 22.7374) 158o 2.140' (-158.0357) 0.2 0 42 1.6 12.39 12.24
4-28-2024 13:30:39 22o 44.246' ( 22.7374) 158o 2.150' (-158.0358) 1.0 39 43 3.2 12.42 12.24
4-28-2024 13:00:18 22o 44.243' ( 22.7374) 158o 2.144' (-158.0357) 0.2 0 41 2.2 12.39 12.24
4-28-2024 12:30:14 22o 44.234' ( 22.7372) 158o 2.143' (-158.0357) 0.2 0 42 1.4 12.36 12.24
4-28-2024 12:00:36 22o 44.235' ( 22.7372) 158o 2.143' (-158.0357) 0.4 33 41 1.2 12.36 12.24
4-28-2024 11:30:36 22o 44.234' ( 22.7372) 158o 2.143' (-158.0357) 0.4 324 43 1.4 12.39 12.21
4-28-2024 11:00:45 22o 44.233' ( 22.7372) 158o 2.143' (-158.0357) 0.4 297 44 1.6 12.39 12.24
4-28-2024 10:30:13 22o 44.236' ( 22.7373) 158o 2.146' (-158.0358) 0.8 321 42 2.4 12.39 12.24
4-28-2024 10:00:14 22o 44.233' ( 22.7372) 158o 2.138' (-158.0356) 1.6 306 41 0.8 12.39 12.27
4-28-2024 9:30:41 22o 44.181' ( 22.7364) 158o 2.272' (-158.0379) 3.9 78 43 1.0 12.42 12.27
4-28-2024 9:00:11 22o 43.995' ( 22.7333) 158o 3.178' (-158.0530) 0.6 261 43 1.6 12.39 12.24
4-28-2024 8:45:16 22o 43.999' ( 22.7333) 158o 3.175' (-158.0529) 0.4 234 44 1.6 12.42 12.24
4-28-2024 8:30:14 22o 43.907' ( 22.7318) 158o 3.172' (-158.0529) 1.7 9 42 1.8 12.39 12.18
4-28-2024 8:15:14 22o 41.795' ( 22.6966) 158o 3.232' (-158.0539) 12.1 6 43 1.0 12.39 12.24
4-28-2024 8:00:15 22o 38.822' ( 22.6470) 158o 3.230' (-158.0538) 11.7 360 43 1.0 12.39 12.24
4-28-2024 7:45:14 22o 35.791' ( 22.5965) 158o 3.250' (-158.0542) 12.1 357 41 1.2 12.39 12.21
4-28-2024 7:42:54 22o 35.323' ( 22.5887) 158o 3.254' (-158.0542) 11.9 3 42 1.2 12.39 12.21

Xeos # 15 : IMEI 38640 (s/n 268)

*Note: The cut-off voltage for the Xeos Apollo Beacon is 1.5V .

GMT GMT Latitude Longitude Speed Head SNR HDOP Batt(u) Batt(l)
date time deg N deg W knots deg volts volts
4-30-2024 20:00:12 22o 47.684' ( 22.7947) 157o 54.449' (-157.9075) 0.8 135 33 1.6 12.42 12.27
4-30-2024 19:30:17 22o 47.831' ( 22.7972) 157o 53.795' (-157.8966) 2.7 18 44 2.0 12.45 12.24
4-30-2024 18:52:35 22o 48.466' ( 22.8078) 157o 54.374' (-157.9062) 4.9 165 44 1.8 12.45 12.27
4-30-2024 18:01:23 22o 55.953' ( 22.9325) 157o 58.008' (-157.9668) 9.3 153 30 2.6 12.42 12.24
4-30-2024 17:24:31 23o 2.109' ( 23.0352) 158o 1.007' (-158.0168) 10.7 174 45 2.6 12.42 12.24
4-30-2024 16:21:05 23o 2.390' ( 23.0398) 158o 1.384' (-158.0231) 0.4 72 45 1.6 12.42 12.18
4-30-2024 15:30:27 23o 2.251' ( 23.0375) 158o 1.256' (-158.0209) 1.4 0 33 5.0 12.42 12.24
4-30-2024 15:00:27 23o 2.176' ( 23.0363) 158o 1.198' (-158.0200) 0.4 267 45 5.4 12.42 12.15
4-30-2024 14:30:22 23o 2.114' ( 23.0352) 158o 1.160' (-158.0193) 1.4 81 44 5.0 12.42 12.24
4-30-2024 14:00:35 23o 2.061' ( 23.0343) 158o 1.133' (-158.0189) 1.2 294 45 3.6 12.42 12.15
4-30-2024 13:30:14 23o 2.003' ( 23.0334) 158o 1.117' (-158.0186) 1.4 51 35 2.2 12.39 12.24
4-30-2024 12:50:06 23o 1.928' ( 23.0321) 158o 1.102' (-158.0184) 1.4 321 44 1.4 12.42 12.18
4-30-2024 11:52:26 23o 1.773' ( 23.0296) 158o 1.115' (-158.0186) 0.4 246 43 1.2 12.42 12.21
4-30-2024 11:01:36 23o 1.587' ( 23.0265) 158o 1.177' (-158.0196) 0.6 24 45 2.6 12.45 12.24
4-30-2024 10:30:15 23o 1.439' ( 23.0240) 158o 1.244' (-158.0207) 0.8 342 42 2.2 12.33 12.24
4-30-2024 10:00:13 23o 1.261' ( 23.0210) 158o 1.308' (-158.0218) 1.0 309 44 2.6 12.45 12.15
4-30-2024 9:30:16 23o 1.058' ( 23.0176) 158o 1.386' (-158.0231) 0.6 348 44 1.6 12.42 12.24
4-30-2024 9:00:12 23o 0.838' ( 23.0140) 158o 1.457' (-158.0243) 0.6 93 41 1.4 12.42 12.27
4-30-2024 8:30:12 23o 0.594' ( 23.0099) 158o 1.537' (-158.0256) 1.0 345 45 1.4 12.42 12.24
4-30-2024 8:21:06 23o 0.520' ( 23.0087) 158o 1.558' (-158.0260) 1.2 348 43 1.4 12.42 12.24
4-30-2024 7:30:13 23o 0.086' ( 23.0014) 158o 1.639' (-158.0273) 0.6 276 43 1.2 12.42 12.21
4-30-2024 7:00:10 22o 59.819' ( 22.9970) 158o 1.649' (-158.0275) 0.8 261 36 1.4 12.42 12.18
4-30-2024 6:30:13 22o 59.569' ( 22.9928) 158o 1.647' (-158.0274) 1.2 246 42 1.0 12.33 12.24
4-30-2024 5:53:07 22o 59.275' ( 22.9879) 158o 1.605' (-158.0267) 1.2 195 47 2.0 12.42 12.24
4-30-2024 4:31:53 22o 58.793' ( 22.9799) 158o 1.432' (-158.0239) 0.4 117 42 1.4 12.45 12.24
4-30-2024 4:21:35 22o 58.745' ( 22.9791) 158o 1.403' (-158.0234) 1.2 39 44 1.2 12.42 12.18
4-30-2024 3:41:01 22o 58.591' ( 22.9765) 158o 1.321' (-158.0220) 7.8 297 45 3.2 12.42 12.24
4-30-2024 3:01:11 22o 58.491' ( 22.9748) 158o 1.276' (-158.0213) 1.6 81 50 3.8 12.42 12.24
4-30-2024 2:31:02 22o 58.424' ( 22.9737) 158o 1.274' (-158.0212) 0.4 294 38 2.4 12.45 12.27
4-30-2024 2:01:25 22o 58.355' ( 22.9726) 158o 1.289' (-158.0215) 0.6 306 47 2.2 12.42 12.27
4-30-2024 1:31:31 22o 58.277' ( 22.9713) 158o 1.332' (-158.0222) 1.2 138 46 1.2 12.39 12.21
4-30-2024 1:01:38 22o 58.194' ( 22.9699) 158o 1.399' (-158.0233) 0.4 297 36 1.8 12.45 12.24
4-30-2024 0:30:20 22o 58.114' ( 22.9686) 158o 1.484' (-158.0247) 0.4 294 44 2.0 12.45 12.27
4-29-2024 23:40:19 22o 57.963' ( 22.9660) 158o 1.639' (-158.0273) 2.1 48 45 1.8 12.45 12.24
4-29-2024 23:00:44 22o 57.785' ( 22.9631) 158o 1.788' (-158.0298) 1.2 39 45 1.8 12.45 12.27
4-29-2024 22:11:21 22o 57.464' ( 22.9577) 158o 2.009' (-158.0335) 1.4 21 44 2.6 12.42 12.27
4-29-2024 21:31:18 22o 57.163' ( 22.9527) 158o 2.087' (-158.0348) 1.7 63 47 7.2 12.45 12.27
4-29-2024 21:01:19 22o 56.896' ( 22.9483) 158o 2.178' (-158.0363) 1.7 84 44 4.4 12.45 12.27
4-29-2024 20:30:10 22o 56.608' ( 22.9435) 158o 2.241' (-158.0374) 1.2 39 44 1.6 12.48 12.27
4-29-2024 19:30:35 22o 56.037' ( 22.9339) 158o 2.314' (-158.0386) 1.6 360 43 2.2 12.45 12.27
4-29-2024 19:21:52 22o 55.954' ( 22.9326) 158o 2.318' (-158.0386) 0.8 360 43 2.0 12.48 12.27
4-29-2024 18:39:59 22o 55.555' ( 22.9259) 158o 2.333' (-158.0389) 1.6 288 43 1.8 12.45 12.27
4-29-2024 18:10:36 22o 55.287' ( 22.9215) 158o 2.298' (-158.0383) 1.6 96 46 1.4 12.42 12.27
4-29-2024 17:30:39 22o 54.955' ( 22.9159) 158o 2.224' (-158.0371) 0.6 63 45 2.0 12.45 12.27
4-29-2024 17:00:59 22o 54.730' ( 22.9122) 158o 2.138' (-158.0356) 1.0 81 45 1.6 12.42 12.27
4-29-2024 16:30:55 22o 54.530' ( 22.9088) 158o 2.040' (-158.0340) 1.7 342 45 1.8 12.42 12.21
4-29-2024 16:01:19 22o 54.360' ( 22.9060) 158o 1.936' (-158.0323) 1.7 348 44 2.2 12.42 12.27
4-29-2024 15:30:11 22o 54.217' ( 22.9036) 158o 1.817' (-158.0303) 1.2 327 42 2.4 12.42 12.27
4-29-2024 15:00:16 22o 54.115' ( 22.9019) 158o 1.708' (-158.0285) 1.2 63 45 1.6 12.42 12.27
4-29-2024 14:11:23 22o 53.964' ( 22.8994) 158o 1.575' (-158.0263) 0.6 42 45 1.8 12.42 12.24
4-29-2024 13:30:15 22o 53.858' ( 22.8976) 158o 1.514' (-158.0252) 0.4 255 45 2.8 12.42 12.27
4-29-2024 13:00:11 22o 53.801' ( 22.8967) 158o 1.513' (-158.0252) 0.6 261 45 1.8 12.42 12.18
4-29-2024 12:30:13 22o 53.749' ( 22.8958) 158o 1.523' (-158.0254) 0.8 135 45 1.6 12.45 12.24
4-29-2024 12:00:13 22o 53.684' ( 22.8947) 158o 1.543' (-158.0257) 1.9 18 44 2.0 12.42 12.24
4-29-2024 11:21:04 22o 53.577' ( 22.8929) 158o 1.598' (-158.0266) 0.8 330 44 1.6 12.45 12.24
4-29-2024 10:30:13 22o 53.384' ( 22.8897) 158o 1.673' (-158.0279) 0.8 360 45 1.4 12.36 12.27
4-29-2024 10:00:15 22o 53.224' ( 22.8871) 158o 1.720' (-158.0287) 0.4 162 45 1.2 12.42 12.24
4-29-2024 9:22:28 22o 52.976' ( 22.8829) 158o 1.783' (-158.0297) 1.9 114 44 1.4 12.36 12.18
4-29-2024 8:51:29 22o 52.736' ( 22.8789) 158o 1.840' (-158.0307) 2.5 285 43 1.6 12.36 12.18
4-29-2024 8:10:25 22o 52.396' ( 22.8733) 158o 1.901' (-158.0317) 1.4 141 34 1.8 12.42 12.27
4-29-2024 7:10:41 22o 51.887' ( 22.8648) 158o 1.945' (-158.0324) 1.2 258 44 1.6 12.42 12.24
4-29-2024 6:40:34 22o 51.619' ( 22.8603) 158o 1.961' (-158.0327) 0.8 36 42 1.8 12.42 12.24
4-29-2024 6:10:52 22o 51.356' ( 22.8559) 158o 1.971' (-158.0328) 2.9 30 35 1.8 12.42 12.21
4-29-2024 5:31:07 22o 51.001' ( 22.8500) 158o 1.966' (-158.0328) 1.2 36 38 2.8 12.36 12.27
4-29-2024 5:00:11 22o 50.737' ( 22.8456) 158o 1.942' (-158.0324) 0.6 351 38 1.6 12.36 12.27
4-29-2024 4:00:44 22o 50.300' ( 22.8383) 158o 1.874' (-158.0312) 0.8 234 44 1.2 12.45 12.24
4-29-2024 3:53:22 22o 50.255' ( 22.8376) 158o 1.866' (-158.0311) 0.6 348 44 1.2 12.45 12.27
4-29-2024 3:23:24 22o 50.093' ( 22.8349) 158o 1.825' (-158.0304) 0.6 42 42 2.2 12.45 12.27
4-29-2024 2:30:35 22o 49.876' ( 22.8313) 158o 1.783' (-158.0297) 1.0 357 46 2.2 12.45 12.27
4-29-2024 2:00:33 22o 49.790' ( 22.8298) 158o 1.777' (-158.0296) 1.2 288 45 1.8 12.42 12.27
4-29-2024 1:30:51 22o 49.725' ( 22.8287) 158o 1.791' (-158.0299) 0.6 87 45 1.8 12.45 12.27
4-29-2024 1:00:49 22o 49.674' ( 22.8279) 158o 1.847' (-158.0308) 1.0 75 47 2.2 12.45 12.27
4-29-2024 0:30:10 22o 49.605' ( 22.8268) 158o 1.908' (-158.0318) 0.6 21 45 2.0 12.45 12.27
4-28-2024 23:41:17 22o 49.451' ( 22.8242) 158o 2.027' (-158.0338) 0.8 87 45 4.8 12.45 12.27
4-28-2024 23:11:25 22o 49.360' ( 22.8227) 158o 2.141' (-158.0357) 1.6 177 43 2.4 12.42 12.27
4-28-2024 22:31:44 22o 49.192' ( 22.8199) 158o 2.242' (-158.0374) 2.1 48 45 2.6 12.45 12.27
4-28-2024 22:10:38 22o 49.084' ( 22.8181) 158o 2.361' (-158.0394) 0.8 129 47 3.8 12.42 12.27
4-28-2024 21:11:06 22o 48.700' ( 22.8117) 158o 2.555' (-158.0426) 2.3 75 43 2.0 12.45 12.24
4-28-2024 20:30:09 22o 48.398' ( 22.8066) 158o 2.681' (-158.0447) 2.9 117 35 1.4 12.42 12.27
4-28-2024 19:51:35 22o 48.123' ( 22.8021) 158o 2.805' (-158.0468) 0.4 3 45 1.4 12.45 12.27
4-28-2024 19:21:54 22o 47.909' ( 22.7985) 158o 2.890' (-158.0482) 1.6 138 43 1.4 12.45 12.27
4-28-2024 18:30:08 22o 47.491' ( 22.7915) 158o 3.012' (-158.0502) 0.8 138 44 1.4 12.45 12.27
4-28-2024 17:40:52 22o 47.062' ( 22.7844) 158o 3.106' (-158.0518) 3.5 351 44 1.6 12.42 12.24
4-28-2024 17:22:28 22o 46.895' ( 22.7816) 158o 3.123' (-158.0521) 1.6 333 42 1.2 12.45 12.27
4-28-2024 16:30:13 22o 46.477' ( 22.7746) 158o 3.158' (-158.0526) 0.4 12 44 2.2 12.48 12.27
4-28-2024 16:00:13 22o 46.247' ( 22.7708) 158o 3.177' (-158.0530) 1.4 297 34 2.0 12.42 12.24
4-28-2024 15:21:04 22o 45.968' ( 22.7661) 158o 3.194' (-158.0532) 0.4 48 44 2.4 12.42 12.24
4-28-2024 14:22:12 22o 45.613' ( 22.7602) 158o 3.178' (-158.0530) 0.6 54 35 3.0 12.42 12.24
4-28-2024 13:41:06 22o 45.401' ( 22.7567) 158o 3.179' (-158.0530) 1.2 279 45 1.2 12.42 12.18
4-28-2024 13:01:16 22o 45.228' ( 22.7538) 158o 3.156' (-158.0526) 0.6 3 45 1.4 12.42 12.24
4-28-2024 12:31:24 22o 45.093' ( 22.7516) 158o 3.154' (-158.0526) 1.0 78 45 1.4 12.45 12.24
4-28-2024 11:51:51 22o 44.906' ( 22.7484) 158o 3.166' (-158.0528) 1.0 354 33 2.6 12.42 12.24
4-28-2024 11:23:05 22o 44.770' ( 22.7462) 158o 3.163' (-158.0527) 5.1 273 41 1.6 12.39 12.18
4-28-2024 10:30:13 22o 44.497' ( 22.7416) 158o 3.162' (-158.0527) 2.3 339 38 2.2 12.45 12.18
4-28-2024 9:53:06 22o 44.273' ( 22.7379) 158o 3.175' (-158.0529) 0.6 15 30 1.6 12.42 12.24
4-28-2024 9:03:53 22o 43.999' ( 22.7333) 158o 3.179' (-158.0530) 1.4 159 44 1.6 12.42 12.24
4-28-2024 8:30:14 22o 43.898' ( 22.7316) 158o 3.172' (-158.0529) 1.7 9 43 3.4 12.36 12.21
4-28-2024 8:15:12 22o 41.788' ( 22.6965) 158o 3.233' (-158.0539) 12.2 0 45 2.2 12.45 12.27
4-28-2024 8:00:11 22o 38.805' ( 22.6468) 158o 3.232' (-158.0539) 11.7 3 45 2.2 12.42 12.24
4-28-2024 7:45:32 22o 35.849' ( 22.5975) 158o 3.250' (-158.0542) 11.7 354 43 2.0 12.36 12.27
4-28-2024 7:44:06 22o 35.561' ( 22.5927) 158o 3.252' (-158.0542) 12.1 357 44 2.0 12.45 12.27